Time;durP1;ratioP1;P1;durP2;ratioP2;P2;SDS_P1;SDS_P2;PMS_P1;PMS_P2;Temp;Humidity;BMP_temperature;BMP_pressure;BME280_temperature;BME280_humidity;BME280_pressure;Samples;Min_cycle;Max_cycle;Signal;HPM_P1;HPM_P2
2022/07/24 00:00:11;;;;;;;17.45;12.27;;;19.40;96.10;;;;;;5126738;27;20516;-81
2022/07/24 00:02:58;;;;;;;16.15;12.77;;;19.40;95.90;;;;;;5106446;27;20120;-82
2022/07/24 00:05:46;;;;;;;14.25;11.80;;;19.30;97.90;;;;;;5090594;28;20059;-81
2022/07/24 00:08:35;;;;;;;14.48;11.65;;;19.30;99.90;;;;;;5118625;27;20456;-82
2022/07/24 00:11:23;;;;;;;14.18;12.57;;;19.20;99.90;;;;;;5102645;28;20047;-81
2022/07/24 00:14:10;;;;;;;15.32;11.40;;;19.10;99.90;;;;;;5112297;28;20055;-82
2022/07/24 00:16:58;;;;;;;18.55;11.38;;;19.10;99.90;;;;;;5116848;28;20059;-82
2022/07/24 00:19:45;;;;;;;14.68;11.45;;;19.10;99.90;;;;;;5114874;27;20440;-81
2022/07/24 00:22:32;;;;;;;12.38;11.07;;;19.10;99.90;;;;;;5118331;27;20036;-82
2022/07/24 00:25:20;;;;;;;14.07;11.40;;;19.10;99.90;;;;;;5129256;27;20111;-82
2022/07/24 00:28:09;;;;;;;13.35;10.65;;;19.10;96.50;;;;;;5129556;27;20047;-83
2022/07/24 00:30:56;;;;;;;11.45;10.00;;;19.20;69.10;;;;;;5115555;28;20407;-82
2022/07/24 00:33:44;;;;;;;11.75;9.52;;;19.30;41.80;;;;;;5121176;27;20047;-82
2022/07/24 00:36:31;;;;;;;12.88;10.18;;;19.40;33.70;;;;;;5125758;27;20451;-82
2022/07/24 00:39:21;;;;;;;14.73;11.45;;;19.40;42.10;;;;;;5115375;28;20164;-82
2022/07/24 00:42:08;;;;;;;12.32;11.05;;;19.40;51.60;;;;;;5116707;28;20333;-82
2022/07/24 00:44:55;;;;;;;15.02;11.93;;;19.40;55.00;;;;;;5110911;28;20463;-82
2022/07/24 00:47:43;;;;;;;12.88;10.68;;;19.40;62.20;;;;;;5114164;28;20119;-82
2022/07/24 00:50:32;;;;;;;12.60;10.50;;;19.30;65.10;;;;;;5115286;27;20105;-82
2022/07/24 00:53:22;;;;;;;13.65;10.63;;;19.30;57.00;;;;;;5124871;27;20040;-82
2022/07/24 00:56:12;;;;;;;15.07;11.43;;;19.40;58.10;;;;;;5102932;28;20070;-81
2022/07/24 00:59:00;;;;;;;14.18;11.20;;;19.40;61.50;;;;;;5121623;27;20157;-82
2022/07/24 01:01:49;;;;;;;13.07;10.77;;;19.40;69.40;;;;;;5114902;28;20043;-82
2022/07/24 01:04:38;;;;;;;12.75;11.35;;;19.40;63.40;;;;;;5115326;28;20043;-83
2022/07/24 01:07:32;;;;;;;12.77;10.95;;;19.40;64.00;;;;;;5113059;28;20040;-83
2022/07/24 01:10:19;;;;;;;12.50;10.70;;;19.40;63.50;;;;;;5124244;27;20141;-83
2022/07/24 01:13:07;;;;;;;14.23;11.68;;;19.40;71.90;;;;;;5112850;28;20047;-83
2022/07/24 01:15:54;;;;;;;16.00;11.40;;;19.30;69.50;;;;;;5105057;28;20062;-83
2022/07/24 01:18:42;;;;;;;11.88;10.52;;;19.30;63.60;;;;;;5114384;27;20051;-83
2022/07/24 01:21:29;;;;;;;14.70;11.38;;;19.20;69.90;;;;;;5114156;28;20036;-82
2022/07/24 01:24:17;;;;;;;14.35;11.27;;;19.20;84.10;;;;;;5124186;27;20047;-82
2022/07/24 01:27:04;;;;;;;17.02;10.95;;;19.20;93.70;;;;;;5102431;28;20051;-83
2022/07/24 01:29:52;;;;;;;12.95;11.48;;;19.10;95.70;;;;;;5114832;28;20051;-83
2022/07/24 01:32:39;;;;;;;12.98;11.30;;;19.10;94.10;;;;;;5114765;28;20126;-83
2022/07/24 01:35:29;;;;;;;13.32;10.02;;;19.00;96.10;;;;;;5089405;28;20040;-83
2022/07/24 01:38:16;;;;;;;13.05;11.18;;;19.00;96.00;;;;;;5111613;27;20043;-82
2022/07/24 01:41:06;;;;;;;13.35;11.35;;;18.80;99.90;;;;;;5114018;28;20081;-83
2022/07/24 01:43:54;;;;;;;15.95;10.93;;;18.80;93.10;;;;;;5109092;28;20063;-83
2022/07/24 01:46:41;;;;;;;12.73;10.20;;;18.60;99.00;;;;;;5106203;28;20043;-83
2022/07/24 01:49:28;;;;;;;23.95;10.60;;;18.60;85.70;;;;;;5106892;28;20051;-83
2022/07/24 01:52:17;;;;;;;14.93;10.32;;;18.70;78.40;;;;;;5116056;27;20043;-83
2022/07/24 01:55:05;;;;;;;14.73;11.30;;;18.80;80.80;;;;;;5119983;27;20058;-82
2022/07/24 01:57:53;;;;;;;18.25;11.90;;;18.90;92.60;;;;;;5108631;27;20183;-83
2022/07/24 02:00:40;;;;;;;12.18;10.98;;;18.90;94.10;;;;;;5119622;27;20093;-83
2022/07/24 02:03:27;;;;;;;12.57;10.43;;;18.90;94.60;;;;;;5120805;27;20376;-83
2022/07/24 02:06:15;;;;;;;10.73;9.63;;;18.80;98.00;;;;;;5131476;27;20100;-83
2022/07/24 02:09:03;;;;;;;12.65;10.75;;;18.70;95.50;;;;;;5111008;28;20048;-82
2022/07/24 02:11:51;;;;;;;12.85;11.20;;;18.80;92.20;;;;;;5115415;28;20075;-83
2022/07/24 02:14:38;;;;;;;17.90;11.52;;;18.70;91.30;;;;;;5098628;28;20052;-83
2022/07/24 02:17:28;;;;;;;14.40;10.88;;;18.60;91.10;;;;;;5110751;27;20511;-83
2022/07/24 02:20:20;;;;;;;13.23;10.68;;;18.60;84.90;;;;;;5117359;28;20040;-83
2022/07/24 02:23:08;;;;;;;15.30;10.48;;;18.60;85.60;;;;;;5117718;27;20051;-82
2022/07/24 02:25:55;;;;;;;13.10;11.20;;;18.60;94.80;;;;;;5124128;27;20047;-82
2022/07/24 02:28:45;;;;;;;13.57;11.55;;;18.50;99.90;;;;;;5090335;28;20124;-81
2022/07/24 02:31:32;;;;;;;14.18;10.95;;;18.40;99.90;;;;;;5101854;28;20043;-82
2022/07/24 02:34:20;;;;;;;17.50;11.50;;;18.30;99.90;;;;;;5115530;28;20039;-82
2022/07/24 02:37:07;;;;;;;18.65;11.73;;;18.20;99.90;;;;;;5112587;27;20043;-83
2022/07/24 02:39:54;;;;;;;14.98;11.55;;;18.10;99.90;;;;;;5115422;28;20048;-82
2022/07/24 02:42:44;;;;;;;13.50;11.98;;;18.00;99.90;;;;;;5113019;28;20061;-82
2022/07/24 02:45:31;;;;;;;13.95;12.50;;;17.90;99.90;;;;;;5114009;28;20505;-82
2022/07/24 02:48:21;;;;;;;14.30;12.40;;;17.70;99.90;;;;;;5113727;28;20040;-81
2022/07/24 02:51:08;;;;;;;15.05;11.93;;;17.50;99.90;;;;;;5103335;28;20047;-81
2022/07/24 02:53:55;;;;;;;15.13;12.30;;;17.40;99.90;;;;;;5103681;28;20047;-81
2022/07/24 02:56:43;;;;;;;14.50;11.55;;;17.20;99.90;;;;;;5103840;28;20052;-81
2022/07/24 02:59:32;;;;;;;16.02;12.27;;;17.30;99.90;;;;;;5110705;28;20102;-82
2022/07/24 03:02:21;;;;;;;14.45;12.95;;;17.30;99.90;;;;;;5091152;28;20052;-83
2022/07/24 03:05:11;;;;;;;14.93;11.85;;;17.30;99.90;;;;;;5117345;28;20040;-83
2022/07/24 03:07:58;;;;;;;14.77;11.82;;;17.20;99.90;;;;;;5118961;28;20050;-83
2022/07/24 03:10:45;;;;;;;14.85;12.00;;;17.20;99.90;;;;;;5113589;28;20047;-81
2022/07/24 03:13:35;;;;;;;14.52;11.93;;;17.20;99.90;;;;;;5119429;28;20060;-83
2022/07/24 03:16:27;;;;;;;12.45;11.02;;;17.20;99.90;;;;;;5102930;28;20051;-83
2022/07/24 03:19:14;;;;;;;13.48;11.50;;;17.10;99.90;;;;;;5090106;28;20044;-83
2022/07/24 03:22:06;;;;;;;14.43;11.70;;;17.10;99.90;;;;;;5096696;28;20039;-83
2022/07/24 03:24:53;;;;;;;10.50;8.60;;;17.30;99.90;;;;;;5112367;28;20483;-82
2022/07/24 03:27:43;;;;;;;13.18;11.27;;;17.30;99.90;;;;;;5120553;28;20044;-83
2022/07/24 03:30:30;;;;;;;12.38;9.77;;;17.40;99.90;;;;;;5121052;28;20100;-82
2022/07/24 03:33:20;;;;;;;12.35;10.20;;;17.50;99.90;;;;;;5091230;28;20452;-82
2022/07/24 03:36:10;;;;;;;13.57;10.45;;;17.60;99.90;;;;;;5113480;28;20039;-82
2022/07/24 03:38:59;;;;;;;15.90;11.70;;;17.70;99.90;;;;;;5120662;28;20036;-82
2022/07/24 03:41:51;;;;;;;13.68;10.65;;;17.70;99.90;;;;;;5097170;28;20036;-83
2022/07/24 03:44:39;;;;;;;13.30;11.40;;;17.70;99.90;;;;;;5112691;28;20039;-83
2022/07/24 03:47:26;;;;;;;14.45;10.45;;;17.70;99.90;;;;;;5115310;27;20047;-83
2022/07/24 03:50:13;;;;;;;17.77;11.05;;;17.60;99.90;;;;;;5095677;28;20433;-82
2022/07/24 03:53:10;;;;;;;12.98;10.70;;;17.60;99.90;;;;;;5099892;27;20486;-82
2022/07/24 03:56:07;;;;;;;13.32;10.65;;;17.60;99.90;;;;;;5093983;27;20472;-83
2022/07/24 03:58:54;;;;;;;12.57;11.07;;;17.50;99.90;;;;;;5109915;27;20097;-85
2022/07/24 04:02:03;;;;;;;14.60;11.23;;;17.60;99.90;;;;;;5089204;28;20485;-85
2022/07/24 04:04:53;;;;;;;12.05;9.85;;;17.60;99.90;;;;;;5113891;27;20130;-85
2022/07/24 04:07:40;;;;;;;12.77;10.98;;;17.60;99.90;;;;;;5097276;28;20047;-84
2022/07/24 04:10:28;;;;;;;11.63;10.30;;;17.60;99.90;;;;;;5098906;27;20047;-84
2022/07/24 04:13:15;;;;;;;18.30;11.38;;;17.60;99.90;;;;;;5096525;28;20067;-85
2022/07/24 04:16:02;;;;;;;15.38;10.32;;;17.70;99.90;;;;;;5095884;28;20044;-85
2022/07/24 04:18:52;;;;;;;15.82;10.20;;;17.70;99.90;;;;;;5097888;28;20052;-84
2022/07/24 04:21:41;;;;;;;12.50;10.52;;;17.70;99.90;;;;;;5115849;28;20097;-84
2022/07/24 04:24:33;;;;;;;12.10;10.52;;;17.70;99.90;;;;;;5112545;28;20071;-85
2022/07/24 04:27:23;;;;;;;15.48;11.55;;;17.80;99.90;;;;;;5107824;27;20176;-85
2022/07/24 04:30:11;;;;;;;15.63;10.82;;;17.80;99.90;;;;;;5114968;27;20465;-84
2022/07/24 04:32:58;;;;;;;11.75;10.18;;;17.90;99.90;;;;;;5122499;27;20048;-84
2022/07/24 04:35:45;;;;;;;10.90;9.73;;;17.90;99.90;;;;;;5100584;28;20052;-86
2022/07/24 04:38:36;;;;;;;15.43;10.13;;;17.90;99.90;;;;;;5111501;27;20051;-85
2022/07/24 04:41:26;;;;;;;14.95;10.13;;;17.90;99.90;;;;;;5106121;28;20099;-82
2022/07/24 04:44:19;;;;;;;11.63;10.25;;;17.90;99.90;;;;;;5099539;27;20043;-83
2022/07/24 04:47:09;;;;;;;17.65;11.77;;;17.80;99.90;;;;;;5100759;27;20357;-83
2022/07/24 04:49:56;;;;;;;14.77;11.50;;;17.90;99.90;;;;;;5089235;28;20052;-82
2022/07/24 04:52:46;;;;;;;15.23;11.65;;;17.90;99.90;;;;;;5113424;28;20067;-82
2022/07/24 04:55:33;;;;;;;13.40;12.00;;;17.90;99.90;;;;;;5111496;27;20062;-83
2022/07/24 04:58:23;;;;;;;15.02;11.48;;;17.90;99.90;;;;;;5098460;28;20047;-83
2022/07/24 05:01:12;;;;;;;12.25;10.48;;;17.90;99.90;;;;;;5111982;27;20040;-83
2022/07/24 05:04:00;;;;;;;13.63;10.88;;;18.00;99.90;;;;;;5096526;28;20044;-83
2022/07/24 05:06:49;;;;;;;15.18;11.00;;;18.10;99.90;;;;;;5095571;28;20044;-83
2022/07/24 05:09:36;;;;;;;15.02;11.07;;;18.10;99.90;;;;;;5106284;27;20120;-83
2022/07/24 05:12:24;;;;;;;16.70;10.60;;;18.20;99.90;;;;;;5099102;28;20123;-83
2022/07/24 05:15:11;;;;;;;11.25;10.15;;;18.30;99.90;;;;;;5110273;28;20503;-83
2022/07/24 05:17:59;;;;;;;10.73;9.45;;;18.40;98.20;;;;;;5108177;27;20146;-83
2022/07/24 05:20:48;;;;;;;11.48;9.98;;;18.50;97.40;;;;;;5112208;28;20068;-83
2022/07/24 05:23:38;;;;;;;16.70;9.40;;;18.60;92.90;;;;;;5111911;28;20048;-83
2022/07/24 05:26:25;;;;;;;13.00;9.30;;;18.70;79.90;;;;;;5096878;27;20127;-82
2022/07/24 05:29:17;;;;;;;10.75;9.30;;;18.80;64.40;;;;;;5107006;27;20457;-83
2022/07/24 05:32:04;;;;;;;11.45;10.18;;;18.90;59.60;;;;;;5113597;28;20132;-83
2022/07/24 05:34:54;;;;;;;15.05;9.82;;;19.00;54.80;;;;;;5111989;27;20055;-84
2022/07/24 05:37:42;;;;;;;11.35;10.13;;;19.00;77.60;;;;;;5114111;27;20054;-84
2022/07/24 05:40:31;;;;;;;12.65;10.05;;;19.00;78.30;;;;;;5122593;27;20042;-84
2022/07/24 05:43:19;;;;;;;11.45;10.10;;;19.00;83.10;;;;;;5112547;28;20453;-84
2022/07/24 05:46:09;;;;;;;12.02;10.40;;;19.00;90.10;;;;;;5102706;27;20379;-84
2022/07/24 05:49:06;;;;;;;12.57;10.85;;;19.10;93.80;;;;;;5113965;28;20048;-85
2022/07/24 05:51:56;;;;;;;14.32;10.38;;;19.20;97.20;;;;;;5087991;27;20043;-84
2022/07/24 05:54:45;;;;;;;18.63;10.55;;;19.30;96.50;;;;;;5091480;28;20502;-83
2022/07/24 05:57:33;;;;;;;12.20;10.45;;;19.40;92.50;;;;;;5103668;27;20131;-83
2022/07/24 06:00:21;;;;;;;10.63;9.52;;;19.50;91.30;;;;;;5117397;27;20050;-83
2022/07/24 06:03:09;;;;;;;11.70;9.40;;;19.60;58.00;;;;;;5109033;28;20317;-83
2022/07/24 06:05:59;;;;;;;10.68;9.52;;;19.70;25.60;;;;;;5122568;27;20059;-83
2022/07/24 06:08:48;;;;;;;11.68;10.07;;;19.70;13.10;;;;;;5117603;27;20078;-84
2022/07/24 06:11:35;;;;;;;15.35;10.55;;;20.00;10.80;;;;;;5095951;27;20044;-83
2022/07/24 06:14:25;;;;;;;10.57;9.48;;;20.20;4.60;;;;;;5106932;28;20074;-84
2022/07/24 06:17:12;;;;;;;11.98;9.98;;;20.30;1.00;;;;;;5096328;27;20065;-84
2022/07/24 06:19:59;;;;;;;15.68;9.48;;;20.40;1.00;;;;;;5116526;27;20048;-84
2022/07/24 06:22:46;;;;;;;11.52;9.55;;;20.50;1.00;;;;;;5105446;28;20441;-83
2022/07/24 06:25:35;;;;;;;13.25;9.85;;;20.70;1.00;;;;;;5114712;27;20031;-83
2022/07/24 06:28:22;;;;;;;10.35;9.10;;;20.80;1.00;;;;;;5099650;27;20050;-82
2022/07/24 06:31:10;;;;;;;9.82;8.82;;;20.80;1.00;;;;;;5116284;27;20421;-82
2022/07/24 06:34:06;;;;;;;11.00;8.55;;;20.90;1.00;;;;;;5109551;28;20070;-81
2022/07/24 06:36:53;;;;;;;10.65;8.55;;;21.10;1.00;;;;;;5093240;28;20044;-83
2022/07/24 06:39:40;;;;;;;12.00;9.02;;;21.30;1.00;;;;;;5114058;28;20039;-82
2022/07/24 06:42:30;;;;;;;13.45;8.63;;;21.50;1.00;;;;;;5111035;28;20040;-83
2022/07/24 06:45:20;;;;;;;17.95;8.85;;;21.80;1.00;;;;;;5095520;28;20055;-84
2022/07/24 06:48:12;;;;;;;11.60;8.20;;;22.00;1.00;;;;;;5097386;28;20138;-83
2022/07/24 06:51:02;;;;;;;9.88;8.88;;;22.20;1.00;;;;;;5090976;28;20040;-83
2022/07/24 06:53:56;;;;;;;11.20;8.70;;;22.50;1.00;;;;;;5108498;28;20051;-82
2022/07/24 06:56:46;;;;;;;9.15;8.13;;;22.80;1.00;;;;;;5111035;28;20417;-84
2022/07/24 06:59:38;;;;;;;13.13;8.30;;;23.10;1.00;;;;;;5107410;28;20384;-86
2022/07/24 07:02:25;;;;;;;8.52;7.50;;;23.20;1.00;;;;;;5112870;28;20384;-83
2022/07/24 07:05:13;;;;;;;10.05;8.23;;;23.50;1.00;;;;;;5106196;28;20082;-85
2022/07/24 07:08:00;;;;;;;11.00;7.78;;;23.70;1.00;;;;;;5095694;28;20043;-85
2022/07/24 07:10:52;;;;;;;11.63;8.20;;;23.70;1.00;;;;;;5089843;28;20063;-85
2022/07/24 07:13:39;;;;;;;8.93;7.75;;;23.70;1.00;;;;;;5117446;28;20063;-87
2022/07/24 07:16:26;;;;;;;9.55;7.88;;;24.00;1.00;;;;;;5120311;28;20356;-87
2022/07/24 07:19:14;;;;;;;10.57;7.32;;;24.50;1.00;;;;;;5095853;28;20066;-85
2022/07/24 07:22:02;;;;;;;8.50;7.18;;;25.00;1.00;;;;;;5103332;28;20047;-87
2022/07/24 07:24:49;;;;;;;7.35;6.47;;;25.80;1.00;;;;;;5097264;27;20047;-86
2022/07/24 07:27:37;;;;;;;8.32;7.13;;;26.60;1.00;;;;;;5111183;28;20175;-85
2022/07/24 07:30:25;;;;;;;7.70;6.90;;;26.60;1.00;;;;;;5114533;28;20049;-86
2022/07/24 07:33:12;;;;;;;11.10;7.05;;;26.60;1.00;;;;;;5117758;27;20035;-87
2022/07/24 07:35:59;;;;;;;7.80;6.80;;;27.30;1.00;;;;;;5094125;28;20043;-87
2022/07/24 07:38:49;;;;;;;10.02;7.00;;;27.60;1.00;;;;;;5098160;28;20075;-87
2022/07/24 07:41:38;;;;;;;8.13;7.05;;;28.00;1.00;;;;;;5122803;27;20054;-86
2022/07/24 07:44:30;;;;;;;8.35;6.85;;;27.90;1.00;;;;;;5101710;28;20071;-86
2022/07/24 07:47:17;;;;;;;;;;;28.50;1.00;;;;;;5109516;28;20066;-88
2022/07/24 07:50:05;;;;;;;9.10;6.85;;;28.20;1.00;;;;;;5126165;27;20005;-86
2022/07/24 07:52:55;;;;;;;10.00;7.25;;;27.60;1.00;;;;;;5097313;28;20071;-84
2022/07/24 07:55:48;;;;;;;7.78;6.03;;;27.40;1.00;;;;;;5116649;28;20044;-86
2022/07/24 07:58:35;;;;;;;7.78;6.97;;;27.90;1.00;;;;;;5111970;27;20055;-87
2022/07/24 08:01:22;;;;;;;7.60;6.63;;;28.10;1.00;;;;;;5115395;27;20043;-87
2022/07/24 08:04:10;;;;;;;7.03;5.82;;;27.80;1.00;;;;;;5098506;28;20136;-85
2022/07/24 08:06:57;;;;;;;7.88;6.22;;;28.40;1.00;;;;;;5095504;28;20043;-87
2022/07/24 08:09:44;;;;;;;7.05;6.35;;;29.10;1.00;;;;;;5119416;27;20047;-88
2022/07/24 08:12:35;;;;;;;8.15;6.05;;;29.30;1.00;;;;;;5099199;27;20388;-85
2022/07/24 08:15:49;;;;;;;8.60;6.15;;;29.70;1.00;;;;;;5101571;28;20399;-87
2022/07/24 08:18:37;;;;;;;7.03;6.35;;;29.40;1.00;;;;;;5104444;28;20051;-84
2022/07/24 08:21:28;;;;;;;6.65;5.70;;;29.70;1.00;;;;;;5092828;28;20051;-85
2022/07/24 08:24:22;;;;;;;9.73;5.35;;;30.40;1.00;;;;;;5109131;28;20440;-86
2022/07/24 08:27:10;;;;;;;7.20;5.68;;;31.00;1.00;;;;;;5122554;27;20036;-83
2022/07/24 08:29:57;;;;;;;5.82;5.05;;;30.90;1.00;;;;;;5096509;28;20046;-83
2022/07/24 08:32:47;;;;;;;7.00;5.57;;;30.00;1.00;;;;;;5089771;28;20199;-85
2022/07/24 08:35:34;;;;;;;6.75;4.85;;;29.30;1.00;;;;;;5093317;28;20039;-84
2022/07/24 08:38:23;;;;;;;6.43;5.22;;;30.10;1.00;;;;;;5101718;27;20447;-83
2022/07/24 08:41:14;;;;;;;5.03;4.43;;;31.00;1.00;;;;;;5106670;28;20134;-85
2022/07/24 08:44:05;;;;;;;6.80;5.55;;;31.90;1.00;;;;;;5095342;28;20035;-85
2022/07/24 08:46:54;;;;;;;7.17;5.73;;;32.30;99.90;;;;;;5108596;28;20040;-84
2022/07/24 08:49:48;;;;;;;6.50;5.90;;;30.80;99.90;;;;;;5105809;28;20047;-86
2022/07/24 08:52:35;;;;;;;8.50;5.55;;;29.50;99.90;;;;;;5104428;27;20039;-89
2022/07/24 08:55:37;;;;;;;7.80;5.22;;;29.60;99.90;;;;;;5111701;28;20139;-87
2022/07/24 08:58:25;;;;;;;5.95;5.30;;;30.40;99.90;;;;;;5085184;28;20051;-91
2022/07/24 09:01:12;;;;;;;5.72;4.95;;;30.80;99.90;;;;;;5098787;27;20040;-87
2022/07/24 09:04:02;;;;;;;6.35;5.43;;;31.30;99.90;;;;;;5115324;28;20188;-85
2022/07/24 09:07:07;;;;;;;6.90;4.72;;;32.30;99.90;;;;;;5097996;27;20093;-88
2022/07/24 09:10:03;;;;;;;6.63;5.30;;;32.50;99.90;;;;;;5100708;27;20035;-88
2022/07/24 09:12:53;;;;;;;8.30;5.13;;;31.20;99.90;;;;;;5098428;28;20051;-91
2022/07/24 09:15:46;;;;;;;7.15;5.22;;;31.40;99.90;;;;;;5097825;28;20059;-90
2022/07/24 09:18:36;;;;;;;7.78;4.72;;;32.00;99.90;;;;;;5097550;28;20084;-88
2022/07/24 09:21:29;;;;;;;6.53;4.72;;;32.50;99.90;;;;;;5113267;28;20073;-89
2022/07/24 09:24:20;;;;;;;6.28;4.72;;;32.90;99.90;;;;;;5093488;28;20036;-91
2022/07/24 09:27:16;;;;;;;5.60;4.63;;;33.70;99.90;;;;;;5103826;27;20047;-92
2022/07/24 09:30:05;;;;;;;6.03;5.15;;;33.80;99.90;;;;;;5092127;28;20043;-88
2022/07/24 09:33:00;;;;;;;5.00;4.50;;;33.40;99.90;;;;;;5111033;28;20364;-87
2022/07/24 09:35:54;;;;;;;5.25;4.60;;;34.10;99.90;;;;;;5096154;27;20047;-87
2022/07/24 09:38:51;;;;;;;6.47;4.38;;;35.10;99.90;;;;;;5096733;28;20454;-88
2022/07/24 09:41:53;;;;;;;4.93;4.38;;;34.20;99.90;;;;;;5118688;27;20047;-92
2022/07/24 09:44:46;;;;;;;5.63;4.65;;;32.60;99.90;;;;;;5093522;28;20054;-91
2022/07/24 09:47:36;;;;;;;;;;;32.60;99.90;;;;;;5118453;27;20043;-87
2022/07/24 09:50:30;;;;;;;6.93;4.50;;;33.10;99.90;;;;;;5118726;27;19927;-89
2022/07/24 09:53:19;;;;;;;7.13;4.68;;;33.60;99.90;;;;;;5112023;27;20056;-90
2022/07/24 09:56:08;;;;;;;5.00;4.40;;;34.20;99.90;;;;;;5095625;27;20081;-93
2022/07/24 09:58:59;;;;;;;5.03;4.55;;;34.90;99.90;;;;;;5100640;28;20043;-92
2022/07/24 10:01:53;;;;;;;6.93;4.88;;;35.20;99.90;;;;;;5117597;28;20073;-92
2022/07/24 10:04:42;;;;;;;5.45;4.50;;;34.90;99.90;;;;;;5105423;28;20044;-94
2022/07/24 10:07:30;;;;;;;5.50;4.38;;;35.00;99.90;;;;;;5122683;27;20133;-92
2022/07/24 10:10:17;;;;;;;6.95;3.97;;;35.10;99.90;;;;;;5122702;27;20089;-89
2022/07/24 10:13:05;;;;;;;7.28;4.70;;;35.50;99.90;;;;;;5131757;27;20047;-91
2022/07/24 10:16:16;;;;;;;7.05;4.63;;;35.60;99.90;;;;;;5120359;28;20035;-90
2022/07/24 10:19:14;;;;;;;5.55;4.60;;;35.10;99.90;;;;;;5132590;27;20422;-88
2022/07/24 10:22:08;;;;;;;6.63;4.50;;;34.10;99.90;;;;;;5113352;28;20039;-92
2022/07/24 10:25:09;;;;;;;6.35;4.32;;;33.40;99.90;;;;;;5123445;27;20040;-91
2022/07/24 10:28:03;;;;;;;7.45;4.97;;;33.80;99.90;;;;;;5110411;27;20054;-88
2022/07/24 10:30:55;;;;;;;5.25;4.65;;;33.60;99.90;;;;;;5112101;28;20365;-87
2022/07/24 10:33:50;;;;;;;6.13;4.95;;;34.20;99.90;;;;;;5091204;28;20050;-88
2022/07/24 10:36:48;;;;;;;7.78;4.95;;;33.50;99.90;;;;;;5109198;27;20050;-91
2022/07/24 10:40:03;;;;;;;7.43;5.35;;;33.60;99.90;;;;;;5094565;28;20040;-89
2022/07/24 10:43:05;;;;;;;7.38;5.35;;;33.40;99.90;;;;;;5077026;28;20125;-87
2022/07/24 10:45:58;;;;;;;5.57;4.47;;;33.60;99.90;;;;;;5101671;28;20031;-89
2022/07/24 10:48:48;;;;;;;5.60;4.55;;;34.60;99.90;;;;;;5101131;28;20043;-90
2022/07/24 10:52:00;;;;;;;5.80;4.47;;;35.40;99.90;;;;;;5095645;28;20028;-86
2022/07/24 10:54:47;;;;;;;7.60;4.78;;;36.80;99.90;;;;;;5114207;27;20035;-89
2022/07/24 10:57:53;;;;;;;5.63;4.40;;;36.80;99.90;;;;;;5118616;27;20039;-80
2022/07/24 11:00:44;;;;;;;7.00;5.00;;;36.80;99.90;;;;;;5112831;27;20545;-79
2022/07/24 11:03:32;;;;;;;7.03;4.43;;;36.40;99.90;;;;;;5110643;28;20407;-80
2022/07/24 11:06:38;;;;;;;5.93;4.85;;;35.90;99.90;;;;;;5117291;27;20040;-81
2022/07/24 11:09:27;;;;;;;5.13;4.60;;;35.10;99.90;;;;;;5117066;27;20066;-82
2022/07/24 11:12:27;;;;;;;7.05;5.20;;;33.80;99.90;;;;;;5125684;27;20123;-83
2022/07/24 11:18:20;;;;;;;5.68;5.15;;;33.50;99.90;;;;;;5109376;28;20123;-81
2022/07/24 11:21:08;;;;;;;5.13;4.63;;;33.70;99.90;;;;;;5113827;27;20043;-81
2022/07/24 11:24:19;;;;;;;5.88;4.45;;;35.00;99.90;;;;;;5125967;27;20040;-82
2022/07/24 11:27:16;;;;;;;4.60;4.20;;;36.80;99.90;;;;;;5120494;27;20043;-81
2022/07/24 11:30:04;;;;;;;5.57;4.60;;;37.60;99.90;;;;;;5124426;27;20050;-83
2022/07/24 11:32:51;;;;;;;4.60;4.20;;;36.60;99.90;;;;;;5116428;28;20055;-81
2022/07/24 11:35:39;;;;;;;5.90;4.80;;;35.60;99.90;;;;;;5089897;28;20055;-81
2022/07/24 11:38:30;;;;;;;8.50;5.47;;;34.90;99.90;;;;;;5106737;27;20047;-83
2022/07/24 11:41:19;;;;;;;7.45;5.68;;;34.50;99.90;;;;;;5115777;28;20040;-81
2022/07/24 11:44:07;;;;;;;8.23;5.18;;;34.60;99.90;;;;;;5124958;27;20054;-81
2022/07/24 11:46:57;;;;;;;5.53;4.90;;;35.00;99.90;;;;;;5127321;27;20046;-81
2022/07/24 11:49:49;;;;;;;7.97;4.80;;;34.60;99.90;;;;;;5091824;28;20509;-81
2022/07/24 11:52:39;;;;;;;7.32;5.10;;;33.90;99.90;;;;;;5115576;28;20039;-82
2022/07/24 11:55:26;;;;;;;8.90;5.07;;;34.30;99.90;;;;;;5109614;28;20040;-81
2022/07/24 11:58:18;;;;;;;6.18;4.82;;;35.10;99.90;;;;;;5097027;27;20046;-84
2022/07/24 12:01:25;;;;;;;4.10;3.80;;;35.20;99.90;;;;;;5116934;27;20330;-85
2022/07/24 12:04:12;;;;;;;5.53;4.90;;;36.80;99.90;;;;;;5117295;27;20350;-83
2022/07/24 12:07:05;;;;;;;5.10;4.05;;;35.90;99.90;;;;;;5096418;28;20134;-83
2022/07/24 12:09:57;;;;;;;6.35;4.13;;;36.50;99.90;;;;;;5110134;28;20136;-83
2022/07/24 12:12:45;;;;;;;4.85;4.35;;;36.70;99.90;;;;;;5117880;27;20139;-85
2022/07/24 12:15:32;;;;;;;10.00;4.63;;;37.60;99.90;;;;;;5114370;27;20047;-82
2022/07/24 12:18:19;;;;;;;4.85;4.35;;;37.90;99.90;;;;;;5104292;28;20115;-83
2022/07/24 12:21:14;;;;;;;5.22;3.97;;;37.20;99.90;;;;;;5118177;27;20047;-83
2022/07/24 12:24:02;;;;;;;6.03;4.07;;;36.80;99.90;;;;;;5124988;27;20088;-83
2022/07/24 12:26:57;;;;;;;4.40;4.00;;;36.90;99.90;;;;;;5117570;27;20058;-81
2022/07/24 12:29:47;;;;;;;4.43;4.03;;;36.70;99.90;;;;;;5113417;27;20468;-82
2022/07/24 12:32:34;;;;;;;5.22;4.68;;;36.80;99.90;;;;;;5115054;28;20039;-81
2022/07/24 12:35:22;;;;;;;5.63;4.35;;;37.30;99.90;;;;;;5118406;27;20455;-83
2022/07/24 12:38:11;;;;;;;4.78;4.25;;;38.10;99.90;;;;;;5114432;28;20048;-83
2022/07/24 12:41:13;;;;;;;5.65;4.20;;;38.70;99.90;;;;;;5104428;28;20054;-83
2022/07/24 12:44:03;;;;;;;4.43;3.92;;;39.40;99.90;;;;;;5114153;28;20067;-82
2022/07/24 12:46:57;;;;;;;4.97;4.47;;;39.80;99.90;;;;;;5119080;27;20082;-83
2022/07/24 12:49:50;;;;;;;6.38;4.55;;;38.80;99.90;;;;;;5100999;28;20044;-82
2022/07/24 12:52:38;;;;;;;5.43;4.20;;;37.20;99.90;;;;;;5110965;28;20055;-83
2022/07/24 12:55:25;;;;;;;4.80;4.30;;;37.70;99.90;;;;;;5122207;27;20044;-85
2022/07/24 12:58:12;;;;;;;5.30;4.38;;;38.80;99.90;;;;;;5109962;28;20540;-85
2022/07/24 13:01:03;;;;;;;6.25;4.00;;;39.40;99.90;;;;;;5112715;27;20124;-84
2022/07/24 13:04:00;;;;;;;4.22;3.83;;;40.20;99.90;;;;;;5117566;27;20429;-89
2022/07/24 13:07:01;;;;;;;7.03;3.75;;;41.00;99.90;;;;;;5099727;28;20040;-87
2022/07/24 13:09:49;;;;;;;4.65;4.25;;;41.40;99.90;;;;;;5108282;28;20119;-84
2022/07/24 13:12:41;;;;;;;6.07;4.43;;;39.20;99.90;;;;;;5111272;28;20435;-84
2022/07/24 13:15:29;;;;;;;4.60;4.10;;;38.80;99.90;;;;;;5114337;27;20367;-84
2022/07/24 13:18:19;;;;;;;4.13;3.72;;;38.60;99.90;;;;;;5115089;27;20044;-81
2022/07/24 13:21:06;;;;;;;4.45;3.85;;;38.80;99.90;;;;;;5104003;28;20040;-80
2022/07/24 13:23:54;;;;;;;5.47;4.45;;;37.10;99.90;;;;;;5105513;27;20073;-80
2022/07/24 13:26:43;;;;;;;5.28;4.22;;;36.10;99.90;;;;;;5096370;28;20059;-80
2022/07/24 13:29:34;;;;;;;4.40;3.92;;;36.40;99.90;;;;;;5110814;27;20373;-81
2022/07/24 13:32:21;;;;;;;4.75;4.00;;;37.20;99.90;;;;;;5106709;27;20054;-80
2022/07/24 13:35:09;;;;;;;6.13;3.95;;;38.00;99.90;;;;;;5115043;27;20044;-79
2022/07/24 13:37:57;;;;;;;4.05;3.75;;;38.90;99.90;;;;;;5110641;27;20066;-81
2022/07/24 13:40:47;;;;;;;6.95;4.35;;;39.50;99.90;;;;;;5108995;27;20066;-79
2022/07/24 13:43:34;;;;;;;5.30;3.97;;;39.90;99.90;;;;;;5098611;28;20043;-82
2022/07/24 13:46:21;;;;;;;4.32;3.92;;;39.40;99.90;;;;;;5106732;28;20043;-85
2022/07/24 13:49:08;;;;;;;4.88;3.72;;;38.70;99.90;;;;;;5114313;27;20511;-83
2022/07/24 13:51:56;;;;;;;6.57;3.95;;;38.90;99.90;;;;;;5119326;27;20040;-85
2022/07/24 13:54:44;;;;;;;4.75;3.67;;;38.90;99.90;;;;;;5116462;27;20047;-83
2022/07/24 13:57:34;;;;;;;4.25;3.90;;;38.90;99.90;;;;;;5114322;27;20043;-85
2022/07/24 14:00:23;;;;;;;4.88;4.38;;;39.90;99.90;;;;;;5124379;27;20054;-83
2022/07/24 14:03:10;;;;;;;4.80;4.03;;;39.30;99.90;;;;;;5121310;27;20039;-83
2022/07/24 14:06:17;;;;;;;5.35;4.32;;;38.70;99.90;;;;;;5118976;27;20124;-83
2022/07/24 14:09:10;;;;;;;4.82;4.43;;;38.30;99.90;;;;;;5111181;28;20043;-83
2022/07/24 14:11:59;;;;;;;4.72;4.32;;;37.70;99.90;;;;;;5115639;27;20050;-84
2022/07/24 14:14:49;;;;;;;6.10;4.70;;;36.60;99.90;;;;;;5111643;27;20047;-85
2022/07/24 14:17:36;;;;;;;6.40;4.00;;;36.40;99.90;;;;;;5110815;28;20054;-86
2022/07/24 14:20:29;;;;;;;4.50;4.07;;;37.20;99.90;;;;;;5125261;27;20472;-84
2022/07/24 14:23:19;;;;;;;4.88;4.45;;;37.90;99.90;;;;;;5121615;27;20044;-88
2022/07/24 14:26:09;;;;;;;4.72;4.30;;;37.10;99.90;;;;;;5116117;28;20494;-84
2022/07/24 14:28:57;;;;;;;6.35;4.32;;;36.90;99.90;;;;;;5115222;27;20040;-83
2022/07/24 14:31:48;;;;;;;9.52;4.40;;;37.70;99.90;;;;;;5104641;28;20372;-85
2022/07/24 14:34:43;;;;;;;5.10;4.57;;;38.20;99.90;;;;;;5101735;28;20058;-84
2022/07/24 14:37:30;;;;;;;4.53;4.13;;;37.50;99.90;;;;;;5090617;28;20482;-82
2022/07/24 14:40:24;;;;;;;6.65;3.92;;;37.10;99.90;;;;;;5116751;28;20074;-85